»·PEaware :: N480H KBLH-KBUR

N480H :: KBLH-KBUR

FLIGHT INFORMATION

Flight Status: Arrived
Operator: Privately registered:
United States
More flights under this callsign
Pilot: John N. (54)
Aircraft: Unknown
(TBM8)
More flights by this aircraft type
Origin: KBLH Blythe
United States
Destination: KBUR Bob Hope-Burbank
United States
More flights between these airports :: More routes between these airports
Route: BLH T306 PSP T306 PDZ V186 PURMS
File this flight plan on PilotEdge
Remarks: www.twitch.tv / BonanzaDude
Altitude:
(Current/Filed)
16,000ft
Speed:
(Current/Filed)
260kts
Departed: 27-Sep-16 06:48 PM
Arrived: 27-Sep-16 07:35 PM
Distance/Time
Traveled:
185nm/0:47
Distance/Time
To Go:
Arrived

Flight Plot

Page will automatically refresh every two minutes.

Flight plan parsing failed; only flown route is shown


Map Options




Map Legend


Flown Route
Filed Route
Departure Airport
Arrival Airport
Navaid (VOR, NDB)
Fix

Horizontal Profiles

Position Reports

Time Latitude Longitude Heading Altitude Ground
Speed
27-Sep-16 18:23 33.614316 -114.712630 179 401ft 0kts
27-Sep-16 18:24 33.614316 -114.712630 179 401ft 0kts
27-Sep-16 18:25 33.614316 -114.712630 179 401ft 0kts
27-Sep-16 18:26 33.614316 -114.712630 180 401ft 0kts
27-Sep-16 18:27 33.614315 -114.712630 179 401ft 0kts
27-Sep-16 18:28 33.614315 -114.712630 179 401ft 0kts
27-Sep-16 18:29 33.614315 -114.712630 179 401ft 0kts
27-Sep-16 18:30 33.614315 -114.712630 179 401ft 0kts
27-Sep-16 18:31 33.614315 -114.712630 179 401ft 0kts
27-Sep-16 18:32 33.614315 -114.712630 179 401ft 0kts
27-Sep-16 18:33 33.614315 -114.712630 179 401ft 0kts
27-Sep-16 18:34 33.614315 -114.712630 179 401ft 0kts
27-Sep-16 18:36 33.614315 -114.712630 179 401ft 0kts
27-Sep-16 18:37 33.614314 -114.712630 179 401ft 0kts
27-Sep-16 18:38 33.614225 -114.712781 303 401ft 2kts
27-Sep-16 18:38 33.615144 -114.713147 273 401ft 3kts
27-Sep-16 18:39 33.615147 -114.714597 270 401ft 13kts
27-Sep-16 18:40 33.615197 -114.722531 269 401ft 23kts
27-Sep-16 18:41 33.615898 -114.727648 5 401ft 0kts
27-Sep-16 18:42 33.615901 -114.727648 5 401ft 0kts
27-Sep-16 18:43 33.616634 -114.727170 84 401ft 11kts
27-Sep-16 18:44 33.615714 -114.696969 98 1570ft 107kts
27-Sep-16 18:45 33.603938 -114.662395 165 3621ft 139kts
27-Sep-16 18:46 33.593882 -114.702048 281 5796ft 165kts
27-Sep-16 18:47 33.599857 -114.757274 274 8237ft 171kts
27-Sep-16 18:48 33.606331 -114.815245 293 10437ft 181kts
27-Sep-16 18:49 33.620069 -114.878212 273 12067ft 219kts
27-Sep-16 18:50 33.629251 -114.954853 282 13093ft 238kts
27-Sep-16 18:51 33.642508 -115.033989 282 14099ft 243kts
27-Sep-16 18:52 33.656038 -115.114268 282 15102ft 246kts
27-Sep-16 18:53 33.669728 -115.195737 283 15967ft 255kts
27-Sep-16 18:54 33.684782 -115.285709 282 16027ft 284kts
27-Sep-16 18:55 33.700489 -115.380104 282 16028ft 289kts
27-Sep-16 18:56 33.716277 -115.475441 282 16032ft 290kts
27-Sep-16 18:57 33.732025 -115.570995 282 16034ft 291kts
27-Sep-16 18:58 33.747725 -115.666738 282 16031ft 291kts
27-Sep-16 18:59 33.763358 -115.762566 282 16028ft 291kts
27-Sep-16 19:00 33.778914 -115.858408 282 16024ft 291kts
27-Sep-16 19:01 33.794394 -115.954271 282 16017ft 291kts
27-Sep-16 19:02 33.809805 -116.050208 282 16000ft 291kts
27-Sep-16 19:03 33.825138 -116.146119 282 15998ft 291kts
27-Sep-16 19:04 33.840391 -116.242105 282 15998ft 291kts
27-Sep-16 19:05 33.855544 -116.337929 282 16010ft 291kts
27-Sep-16 19:06 33.870216 -116.433989 278 16009ft 292kts
27-Sep-16 19:07 33.874903 -116.532052 275 16008ft 293kts
27-Sep-16 19:08 33.879544 -116.630140 275 16026ft 293kts
27-Sep-16 19:09 33.884092 -116.728212 275 16060ft 293kts
27-Sep-16 19:10 33.888561 -116.826313 275 16091ft 293kts
27-Sep-16 19:11 33.892968 -116.924710 275 16073ft 294kts
27-Sep-16 19:12 33.897305 -117.023452 275 16056ft 295kts
27-Sep-16 19:13 33.901576 -117.122510 276 16037ft 296kts
27-Sep-16 19:14 33.905792 -117.221798 276 16025ft 296kts
27-Sep-16 19:15 33.909935 -117.321314 276 16015ft 297kts
27-Sep-16 19:16 33.913998 -117.421056 277 15997ft 298kts
27-Sep-16 19:17 33.918145 -117.520968 279 15992ft 297kts
27-Sep-16 19:18 33.947666 -117.611076 297 15992ft 290kts
27-Sep-16 19:19 33.978617 -117.700589 298 16000ft 290kts
27-Sep-16 19:20 34.008697 -117.787609 296 14978ft 311kts
27-Sep-16 19:21 34.038370 -117.885716 295 13879ft 305kts
27-Sep-16 19:22 34.068262 -117.982977 294 12193ft 310kts
27-Sep-16 19:23 34.096294 -118.074399 293 10484ft 275kts
27-Sep-16 19:24 34.120848 -118.154478 292 9977ft 237kts
27-Sep-16 19:25 34.139848 -118.229845 278 8868ft 247kts
27-Sep-16 19:26 34.148680 -118.312088 277 7582ft 239kts
27-Sep-16 19:27 34.155571 -118.374219 278 6284ft 211kts
27-Sep-16 19:29 34.170953 -118.446214 325 4156ft 186kts
27-Sep-16 19:29 34.199608 -118.421474 102 1918ft 193kts
27-Sep-16 19:31 34.197971 -118.374158 92 809ft 82kts
27-Sep-16 19:31 34.197771 -118.356134 88 725ft 27kts
27-Sep-16 19:32 34.198296 -118.352256 44 725ft 11kts
27-Sep-16 19:33 34.198786 -118.352927 275 725ft 17kts
27-Sep-16 19:34 34.200025 -118.359795 291 725ft 17kts
27-Sep-16 19:35 34.199651 -118.359949 143 725ft 0kts
27-Sep-16 19:36 34.199648 -118.359947 143 725ft 0kts
27-Sep-16 19:37 34.199646 -118.359944 143 725ft 0kts
27-Sep-16 19:38 34.199643 -118.359942 143 725ft 0kts
27-Sep-16 19:39 34.199641 -118.359940 143 725ft 0kts

Navigation Log

Ident Type
Flight plan parsing failed, navigation log unavailable